createdAt,value
2019-01-16T00:01:23.887Z,7.40
2019-01-16T00:04:33.702Z,7.40
2019-01-16T00:07:46.262Z,7.40
2019-01-16T00:10:52.330Z,7.40
2019-01-16T00:14:09.030Z,7.40
2019-01-16T00:17:09.415Z,7.40
2019-01-16T00:20:15.146Z,7.40
2019-01-16T00:23:15.566Z,7.40
2019-01-16T00:26:16.696Z,7.40
2019-01-16T00:29:22.462Z,7.50
2019-01-16T00:32:30.194Z,7.50
2019-01-16T00:35:27.115Z,7.50
2019-01-16T00:38:28.526Z,7.50
2019-01-16T00:41:34.471Z,7.50
2019-01-16T00:44:44.586Z,7.50
2019-01-16T00:48:03.955Z,7.50
2019-01-16T00:51:03.045Z,7.50
2019-01-16T00:54:07.590Z,7.50
2019-01-16T00:57:23.790Z,7.50
2019-01-16T01:00:35.883Z,7.50
2019-01-16T01:03:33.995Z,7.50
2019-01-16T01:06:39.782Z,7.50
2019-01-16T01:09:37.866Z,7.50
2019-01-16T01:12:54.087Z,7.50
2019-01-16T01:16:16.697Z,7.50
2019-01-16T01:19:24.372Z,7.50
2019-01-16T01:22:31.582Z,7.50
2019-01-16T01:25:42.398Z,7.50
2019-01-16T01:28:44.506Z,7.50
2019-01-16T01:31:50.206Z,7.50
2019-01-16T01:34:46.554Z,7.40
2019-01-16T01:37:52.407Z,7.50
2019-01-16T01:40:58.203Z,7.40
2019-01-16T01:44:05.859Z,7.50
2019-01-16T01:47:19.079Z,7.50
2019-01-16T01:50:25.452Z,7.40
2019-01-16T01:53:36.690Z,7.30
2019-01-16T01:56:37.802Z,7.30
2019-01-16T01:59:54.259Z,7.30
2019-01-16T02:03:00.422Z,7.30
2019-01-16T02:06:00.235Z,7.30
2019-01-16T02:09:02.404Z,7.30
2019-01-16T02:12:07.920Z,7.30
2019-01-16T02:15:13.260Z,7.30
2019-01-16T02:18:15.503Z,7.40
2019-01-16T02:21:22.011Z,7.40
2019-01-16T02:24:27.516Z,7.40
2019-01-16T02:27:35.160Z,7.50
2019-01-16T02:30:35.142Z,7.50
2019-01-16T02:33:54.387Z,7.40
2019-01-16T02:37:01.973Z,7.50
2019-01-16T02:40:20.518Z,7.50
2019-01-16T02:43:39.074Z,7.50
2019-01-16T02:46:42.184Z,7.50
2019-01-16T02:49:46.808Z,7.50
2019-01-16T02:53:06.460Z,7.50
2019-01-16T02:56:16.688Z,7.40
2019-01-16T02:59:27.929Z,7.40
2019-01-16T03:02:47.071Z,7.40
2019-01-16T03:05:57.582Z,7.40
2019-01-16T03:08:59.793Z,7.40
2019-01-16T03:12:15.736Z,7.40
2019-01-16T03:15:15.907Z,7.40
2019-01-16T03:18:23.665Z,7.40
2019-01-16T03:21:19.007Z,7.40
2019-01-16T03:24:37.146Z,7.40
2019-01-16T03:27:34.691Z,7.40
2019-01-16T03:30:39.913Z,7.40
2019-01-16T03:33:54.065Z,7.40
2019-01-16T03:37:09.787Z,7.40
2019-01-16T03:40:15.646Z,7.40
2019-01-16T03:43:31.471Z,7.40
2019-01-16T03:46:37.246Z,7.30
2019-01-16T03:49:54.236Z,7.30
2019-01-16T03:53:01.552Z,7.30
2019-01-16T03:56:06.974Z,7.30
2019-01-16T03:59:05.127Z,7.30
2019-01-16T04:02:08.822Z,7.30
2019-01-16T04:05:25.167Z,7.30
2019-01-16T04:08:30.399Z,7.30
2019-01-16T04:11:43.135Z,7.30
2019-01-16T04:14:59.298Z,7.30
2019-01-16T04:18:02.909Z,7.30
2019-01-16T04:21:12.771Z,7.20
2019-01-16T04:24:25.842Z,7.10
2019-01-16T04:27:27.115Z,7.10
2019-01-16T04:30:40.858Z,7.00
2019-01-16T04:33:57.511Z,6.90
2019-01-16T04:36:58.076Z,6.80
2019-01-16T04:40:14.332Z,6.90
2019-01-16T04:43:29.483Z,6.90
2019-01-16T04:46:32.722Z,6.80
2019-01-16T04:49:34.015Z,6.80
2019-01-16T04:52:41.250Z,6.90
2019-01-16T04:56:02.015Z,6.90
2019-01-16T04:59:11.204Z,6.90
2019-01-16T05:02:18.411Z,6.80
2019-01-16T05:05:24.838Z,6.80
2019-01-16T05:08:38.199Z,6.80
2019-01-16T05:11:44.310Z,6.80
2019-01-16T05:14:49.524Z,6.80
2019-01-16T05:17:55.587Z,6.70
2019-01-16T05:21:09.324Z,6.80
2019-01-16T05:24:19.845Z,6.80
2019-01-16T05:27:33.075Z,6.70
2019-01-16T05:30:38.665Z,6.80
2019-01-16T05:33:34.732Z,6.70
2019-01-16T05:36:45.252Z,6.70
2019-01-16T05:39:43.346Z,6.70
2019-01-16T05:42:40.412Z,6.60
2019-01-16T05:45:53.880Z,6.70
2019-01-16T05:48:52.713Z,6.70
2019-01-16T05:52:03.078Z,6.70
2019-01-16T05:55:08.867Z,6.70
2019-01-16T05:58:28.178Z,6.70
2019-01-16T06:01:41.918Z,6.70
2019-01-16T06:04:49.384Z,6.80
2019-01-16T06:07:51.768Z,6.80
2019-01-16T06:10:58.973Z,6.80
2019-01-16T06:13:59.410Z,6.80
2019-01-16T06:17:07.127Z,6.90
2019-01-16T06:20:18.882Z,6.90
2019-01-16T06:23:38.712Z,6.90
2019-01-16T06:27:04.408Z,7.00
2019-01-16T06:30:06.581Z,7.00
2019-01-16T06:33:13.759Z,7.00
2019-01-16T06:36:19.344Z,7.00
2019-01-16T06:39:26.453Z,7.00
2019-01-16T06:42:33.343Z,7.00
2019-01-16T06:45:38.036Z,7.00
2019-01-16T06:48:41.065Z,7.00
2019-01-16T06:51:35.038Z,7.00
2019-01-16T06:54:57.655Z,7.10
2019-01-16T06:58:20.220Z,7.00
2019-01-16T07:01:18.371Z,7.00
2019-01-16T07:04:25.204Z,7.10
2019-01-16T07:07:35.000Z,7.10
2019-01-16T07:10:36.323Z,7.10
2019-01-16T07:13:49.223Z,7.10
2019-01-16T07:16:55.374Z,7.20
2019-01-16T07:20:09.871Z,7.10
2019-01-16T07:23:09.533Z,7.10
2019-01-16T07:26:11.675Z,7.10
2019-01-16T07:29:13.448Z,7.10
2019-01-16T07:32:33.256Z,7.20
2019-01-16T07:35:46.060Z,7.20
2019-01-16T07:38:58.582Z,7.10
2019-01-16T07:42:05.121Z,7.10
2019-01-16T07:45:20.600Z,7.10
2019-01-16T07:48:33.549Z,7.10
2019-01-16T07:51:37.984Z,7.10
2019-01-16T07:54:47.952Z,7.20
2019-01-16T07:58:07.371Z,7.20
2019-01-16T08:01:17.356Z,7.20
2019-01-16T08:04:43.295Z,7.20
2019-01-16T08:07:55.985Z,7.20
2019-01-16T08:10:55.472Z,7.20
2019-01-16T08:14:01.104Z,7.30
2019-01-16T08:17:17.596Z,7.30
2019-01-16T08:20:34.683Z,7.20
2019-01-16T08:23:53.472Z,7.20
2019-01-16T08:27:07.639Z,7.30
2019-01-16T08:30:25.420Z,7.30
2019-01-16T08:33:38.656Z,7.30
2019-01-16T08:36:57.782Z,7.30
2019-01-16T08:40:06.177Z,7.30
2019-01-16T08:43:02.747Z,7.30
2019-01-16T08:46:03.580Z,7.20
2019-01-16T08:49:11.040Z,7.30
2019-01-16T08:52:33.817Z,7.30
2019-01-16T08:55:44.030Z,7.30
2019-01-16T08:58:50.063Z,7.30
2019-01-16T09:02:05.143Z,7.20
2019-01-16T09:05:11.409Z,7.20
2019-01-16T09:08:15.319Z,7.30
2019-01-16T09:11:22.724Z,7.30
2019-01-16T09:14:28.848Z,7.20
2019-01-16T09:17:34.808Z,7.20
2019-01-16T09:20:45.363Z,7.20
2019-01-16T09:23:52.441Z,7.10
2019-01-16T09:27:02.495Z,7.10
2019-01-16T09:30:08.275Z,7.10
2019-01-16T09:33:13.964Z,7.10
2019-01-16T09:36:24.832Z,7.00
2019-01-16T09:39:23.032Z,7.00
2019-01-16T09:42:36.608Z,7.10
2019-01-16T09:45:42.112Z,7.10
2019-01-16T09:48:55.064Z,7.10
2019-01-16T09:51:57.980Z,7.10
2019-01-16T09:55:03.676Z,7.20
2019-01-16T09:58:07.091Z,7.20
2019-01-16T10:01:17.284Z,7.30
2019-01-16T10:04:15.982Z,7.30
2019-01-16T10:07:41.872Z,7.20
2019-01-16T10:10:59.484Z,7.30
2019-01-16T10:14:04.574Z,7.40
2019-01-16T10:17:06.466Z,7.20
2019-01-16T10:20:06.683Z,7.10
2019-01-16T10:23:04.722Z,7.10
2019-01-16T10:26:05.875Z,7.10
2019-01-16T10:29:14.783Z,7.10
2019-01-16T10:32:25.635Z,7.10
2019-01-16T10:35:45.248Z,7.20
2019-01-16T10:38:50.312Z,7.30
2019-01-16T10:42:13.099Z,7.20
2019-01-16T10:45:15.732Z,7.20
2019-01-16T10:48:29.587Z,7.20
2019-01-16T10:51:35.306Z,7.10
2019-01-16T10:54:33.508Z,7.10
2019-01-16T10:57:40.381Z,7.20
2019-01-16T11:00:57.431Z,7.20
2019-01-16T11:04:20.700Z,7.10
2019-01-16T11:07:18.139Z,6.90
2019-01-16T11:10:30.672Z,6.90
2019-01-16T11:13:39.754Z,6.90
2019-01-16T11:17:02.100Z,6.90
2019-01-16T11:20:07.679Z,6.90
2019-01-16T11:23:20.611Z,6.80
2019-01-16T11:26:18.339Z,6.90
2019-01-16T11:29:25.026Z,6.80
2019-01-16T11:32:45.287Z,6.80
2019-01-16T11:35:50.340Z,6.80
2019-01-16T11:38:55.942Z,6.80
2019-01-16T11:42:05.256Z,6.80
2019-01-16T11:45:03.348Z,6.80
2019-01-16T11:48:16.107Z,6.80
2019-01-16T11:51:18.900Z,6.90
2019-01-16T11:54:24.117Z,6.90
2019-01-16T11:57:30.007Z,6.80
2019-01-16T12:00:26.135Z,6.80
2019-01-16T12:03:42.917Z,6.80
2019-01-16T12:06:48.647Z,6.60
2019-01-16T12:09:54.135Z,6.70
2019-01-16T12:12:50.003Z,6.80
2019-01-16T12:15:47.027Z,6.70
2019-01-16T12:19:07.076Z,6.70
2019-01-16T12:22:13.110Z,6.70
2019-01-16T12:25:29.247Z,6.80
2019-01-16T12:28:47.846Z,6.80
2019-01-16T12:32:07.227Z,7.00
2019-01-16T12:35:26.839Z,7.00
2019-01-16T12:38:34.482Z,7.00
2019-01-16T12:41:45.082Z,7.10
2019-01-16T12:44:57.143Z,7.30
2019-01-16T12:48:13.612Z,7.80
2019-01-16T12:51:33.577Z,7.90
2019-01-16T12:54:37.967Z,7.50
2019-01-16T12:57:38.439Z,7.40
2019-01-16T13:00:44.642Z,7.20
2019-01-16T13:03:50.147Z,7.10
2019-01-16T13:07:12.107Z,6.90
2019-01-16T13:10:27.840Z,6.90
2019-01-16T13:13:35.014Z,6.80
2019-01-16T13:16:54.561Z,6.80
2019-01-16T13:19:59.914Z,6.70
2019-01-16T13:23:03.683Z,6.60
2019-01-16T13:26:11.170Z,6.70
2019-01-16T13:29:25.987Z,6.80
2019-01-16T13:32:31.329Z,6.70
2019-01-16T13:35:41.435Z,6.70
2019-01-16T13:38:38.983Z,6.60
2019-01-16T13:41:45.118Z,6.60
2019-01-16T13:44:49.647Z,6.70
2019-01-16T13:48:12.306Z,6.70
2019-01-16T13:51:24.794Z,6.60
2019-01-16T13:54:30.387Z,6.70
2019-01-16T13:57:37.478Z,6.70
2019-01-16T14:00:50.726Z,6.80
2019-01-16T14:03:56.075Z,6.80
2019-01-16T14:07:15.648Z,6.80
2019-01-16T14:10:30.366Z,6.70
2019-01-16T14:13:28.747Z,6.70
2019-01-16T14:16:34.566Z,6.70
2019-01-16T14:19:45.240Z,6.70
2019-01-16T14:22:50.713Z,6.70
2019-01-16T14:26:10.207Z,6.80
2019-01-16T14:29:15.797Z,6.70
2019-01-16T14:32:22.048Z,6.60
2019-01-16T14:35:47.443Z,6.60
2019-01-16T14:38:53.187Z,6.70
2019-01-16T14:41:54.088Z,6.70
2019-01-16T14:44:53.586Z,6.70
2019-01-16T14:48:01.070Z,6.60
2019-01-16T14:51:15.894Z,6.60
2019-01-16T14:54:15.791Z,6.50
2019-01-16T14:57:25.543Z,6.60
2019-01-16T15:00:31.446Z,6.50
2019-01-16T15:03:41.867Z,6.50
2019-01-16T15:06:55.061Z,6.50
2019-01-16T15:09:53.834Z,6.50
2019-01-16T15:12:58.460Z,6.40
2019-01-16T15:16:11.344Z,6.50
2019-01-16T15:19:24.609Z,6.50
2019-01-16T15:22:40.446Z,6.50
2019-01-16T15:25:59.883Z,6.50
2019-01-16T15:28:56.356Z,6.40
2019-01-16T15:32:01.951Z,6.40
2019-01-16T15:34:59.636Z,6.40
2019-01-16T15:38:00.854Z,6.40
2019-01-16T15:41:04.094Z,6.40
2019-01-16T15:44:00.766Z,6.40
2019-01-16T15:47:08.574Z,6.40
2019-01-16T15:50:07.990Z,6.40
2019-01-16T15:53:36.839Z,6.40
2019-01-16T15:56:52.947Z,6.30
2019-01-16T16:00:02.828Z,6.40
2019-01-16T16:03:13.108Z,6.40
2019-01-16T16:06:23.228Z,6.40
2019-01-16T16:09:38.645Z,6.30
2019-01-16T16:12:36.016Z,6.30
2019-01-16T16:15:52.616Z,6.40
2019-01-16T16:19:02.675Z,6.30
2019-01-16T16:22:05.496Z,6.30
2019-01-16T16:25:17.408Z,6.30
2019-01-16T16:28:16.552Z,6.30
2019-01-16T16:31:11.200Z,6.30
2019-01-16T16:34:22.600Z,6.30
2019-01-16T16:37:28.526Z,6.30
2019-01-16T16:40:40.724Z,6.30
2019-01-16T16:43:54.126Z,6.40
2019-01-16T16:46:54.904Z,6.40
2019-01-16T16:49:56.670Z,6.40
2019-01-16T16:53:03.127Z,6.40
2019-01-16T16:56:08.454Z,6.30
2019-01-16T16:59:10.323Z,6.30
2019-01-16T17:02:23.703Z,6.30
2019-01-16T17:05:29.166Z,6.30
2019-01-16T17:08:38.863Z,6.20
2019-01-16T17:11:44.856Z,6.30
2019-01-16T17:14:53.198Z,6.20
2019-01-16T17:18:01.907Z,6.20
2019-01-16T17:21:02.437Z,6.20
2019-01-16T17:24:13.223Z,6.20
2019-01-16T17:27:09.779Z,6.20
2019-01-16T17:30:19.919Z,6.20
2019-01-16T17:33:45.250Z,6.20
2019-01-16T17:36:58.078Z,6.20
2019-01-16T17:39:51.739Z,6.20
2019-01-16T17:42:58.797Z,6.20
2019-01-16T17:46:16.106Z,6.20
2019-01-16T17:49:35.774Z,6.20
2019-01-16T17:52:38.819Z,6.20
2019-01-16T17:55:42.826Z,6.20
2019-01-16T17:58:57.650Z,6.20
2019-01-16T18:02:08.124Z,6.20
2019-01-16T18:05:20.080Z,6.20
2019-01-16T18:08:26.211Z,6.10
2019-01-16T18:11:37.751Z,6.20
2019-01-16T18:14:44.976Z,6.10
2019-01-16T18:17:50.268Z,6.10
2019-01-16T18:20:55.598Z,6.10
2019-01-16T18:24:02.026Z,6.10
2019-01-16T18:26:58.979Z,6.10
2019-01-16T18:29:58.291Z,6.10
2019-01-16T18:32:54.097Z,6.10
2019-01-16T18:35:54.198Z,6.10
2019-01-16T18:38:53.047Z,6.10
2019-01-16T18:42:00.578Z,6.10
2019-01-16T18:45:17.347Z,6.10
2019-01-16T18:48:23.103Z,6.10
2019-01-16T18:51:28.974Z,6.20
2019-01-16T18:54:30.882Z,6.20
2019-01-16T18:57:37.956Z,6.10
2019-01-16T19:00:45.428Z,6.20
2019-01-16T19:03:57.386Z,6.20
2019-01-16T19:07:00.838Z,6.30
2019-01-16T19:10:10.898Z,6.20
2019-01-16T19:13:14.203Z,6.20
2019-01-16T19:16:30.935Z,6.20
2019-01-16T19:19:37.110Z,6.20
2019-01-16T19:22:45.259Z,6.30
2019-01-16T19:25:51.646Z,6.30
2019-01-16T19:28:58.064Z,6.30
2019-01-16T19:32:05.244Z,6.40
2019-01-16T19:35:28.019Z,6.40
2019-01-16T19:38:29.648Z,6.50
2019-01-16T19:41:43.440Z,6.50
2019-01-16T19:44:57.976Z,6.60
2019-01-16T19:48:05.504Z,6.60
2019-01-16T19:51:04.192Z,6.60
2019-01-16T19:54:23.567Z,6.70
2019-01-16T19:57:37.427Z,6.60
2019-01-16T20:00:42.987Z,6.60
2019-01-16T20:04:01.990Z,6.60
2019-01-16T20:07:24.670Z,6.60
2019-01-16T20:10:23.924Z,6.50
2019-01-16T20:13:30.079Z,6.50
2019-01-16T20:16:25.709Z,6.50
2019-01-16T20:19:31.808Z,6.40
2019-01-16T20:22:47.708Z,6.40
2019-01-16T20:25:59.969Z,6.40
2019-01-16T20:29:06.938Z,6.40
2019-01-16T20:32:06.496Z,6.30
2019-01-16T20:35:13.724Z,6.30
2019-01-16T20:38:19.283Z,6.30
2019-01-16T20:41:25.403Z,6.30
2019-01-16T20:44:30.786Z,6.30
2019-01-16T20:47:40.604Z,6.30
2019-01-16T20:50:47.596Z,6.30
2019-01-16T20:53:58.252Z,6.30
2019-01-16T20:56:57.152Z,6.30
2019-01-16T21:00:04.555Z,6.30
2019-01-16T21:03:11.773Z,6.30
2019-01-16T21:06:17.739Z,6.30
2019-01-16T21:09:17.126Z,6.30
2019-01-16T21:12:27.306Z,6.30
2019-01-16T21:15:33.383Z,6.30
2019-01-16T21:18:39.259Z,6.30
2019-01-16T21:21:52.726Z,6.30
2019-01-16T21:25:00.750Z,6.30
2019-01-16T21:28:08.467Z,6.30
2019-01-16T21:31:27.795Z,6.30
2019-01-16T21:34:36.325Z,6.30
2019-01-16T21:37:37.919Z,6.30
2019-01-16T21:40:45.558Z,6.20
2019-01-16T21:43:51.591Z,6.20
2019-01-16T21:47:04.584Z,6.20
2019-01-16T21:50:08.559Z,6.20
2019-01-16T21:53:19.283Z,6.30
2019-01-16T21:56:24.775Z,6.30
2019-01-16T21:59:30.507Z,6.30
2019-01-16T22:02:46.351Z,6.20
2019-01-16T22:05:48.316Z,6.20
2019-01-16T22:08:54.118Z,6.20
2019-01-16T22:11:59.973Z,6.20
2019-01-16T22:14:58.100Z,6.20
2019-01-16T22:18:13.082Z,6.20
2019-01-16T22:21:33.323Z,6.20
2019-01-16T22:24:32.526Z,6.20
2019-01-16T22:27:30.994Z,6.20
2019-01-16T22:30:41.338Z,6.20
2019-01-16T22:33:47.212Z,6.30
2019-01-16T22:37:00.980Z,6.20
2019-01-16T22:39:59.575Z,6.20
2019-01-16T22:42:56.362Z,6.20
2019-01-16T22:46:06.730Z,6.20
2019-01-16T22:49:01.507Z,6.20
2019-01-16T22:52:03.665Z,6.30
2019-01-16T22:55:09.266Z,6.30
2019-01-16T22:58:15.215Z,6.30
2019-01-16T23:01:26.361Z,6.30
2019-01-16T23:04:33.966Z,6.20
2019-01-16T23:07:59.514Z,6.30
2019-01-16T23:10:57.730Z,6.20
2019-01-16T23:14:07.882Z,6.20
2019-01-16T23:17:07.481Z,6.20
2019-01-16T23:20:10.610Z,6.20
2019-01-16T23:23:24.065Z,6.10
2019-01-16T23:26:39.375Z,6.20
2019-01-16T23:29:50.401Z,6.10
2019-01-16T23:33:00.683Z,6.00
2019-01-16T23:35:56.584Z,5.90
2019-01-16T23:39:02.586Z,5.80
2019-01-16T23:42:09.142Z,5.80
2019-01-16T23:45:16.346Z,5.80
2019-01-16T23:48:30.930Z,5.80
2019-01-16T23:51:40.551Z,5.90
2019-01-16T23:54:45.750Z,5.80
2019-01-16T23:57:44.317Z,5.80
